Time;durP1;ratioP1;P1;durP2;ratioP2;P2;SDS_P1;SDS_P2;PMS_P1;PMS_P2;Temp;Humidity;BMP_temperature;BMP_pressure;BME280_temperature;BME280_humidity;BME280_pressure;Samples;Min_cycle;Max_cycle;Signal;HPM_P1;HPM_P2
2021/08/26 00:07:52;;;;;;;1.75;0.28;;;;;;;;;;5010545;28;20193;-70
2021/08/26 00:10:19;;;;;;;0.75;0.30;;;;;;;;;;5011889;28;20029;-70
2021/08/26 00:12:45;;;;;;;1.50;0.20;;;;;;;;;;5012237;28;20026;-70
2021/08/26 00:15:11;;;;;;;1.40;0.30;;;;;;;;;;5012365;28;20052;-70
2021/08/26 00:17:36;;;;;;;1.83;0.20;;;;;;;;;;5012079;28;20025;-70
2021/08/26 00:20:03;;;;;;;4.63;0.40;;;;;;;;;;4997361;28;20030;-70
2021/08/26 00:22:29;;;;;;;0.50;0.20;;;;;;;;;;4992422;28;20479;-70
2021/08/26 00:24:55;;;;;;;0.93;0.20;;;;;;;;;;4992892;28;20089;-70
2021/08/26 00:27:23;;;;;;;1.65;0.20;;;;;;;;;;4992359;28;20058;-70
2021/08/26 00:29:49;;;;;;;0.28;0.25;;;;;;;;;;5005339;28;20117;-70
2021/08/26 00:32:14;;;;;;;1.98;0.40;;;;;;;;;;4996386;28;20118;-70
2021/08/26 00:34:40;;;;;;;2.80;0.32;;;;;;;;;;5012130;28;20109;-70
2021/08/26 00:37:05;;;;;;;2.65;0.43;;;;;;;;;;5012168;28;20022;-70
2021/08/26 00:39:31;;;;;;;1.58;0.30;;;;;;;;;;4993728;28;20508;-70
2021/08/26 00:41:56;;;;;;;1.50;0.35;;;;;;;;;;5012150;28;20434;-70
2021/08/26 00:44:21;;;;;;;0.60;0.20;;;;;;;;;;5011930;28;20504;-70
2021/08/26 00:46:47;;;;;;;0.80;0.25;;;;;;;;;;5012073;28;20029;-70
2021/08/26 00:49:17;;;;;;;0.65;0.30;;;;;;;;;;5011896;28;20410;-70
2021/08/26 00:51:45;;;;;;;1.98;0.47;;;;;;;;;;5011662;28;20547;-70
2021/08/26 00:54:11;;;;;;;3.80;0.88;;;;;;;;;;5011794;28;20022;-70
2021/08/26 00:56:37;;;;;;;2.83;0.40;;;;;;;;;;5011383;28;20032;-70
2021/08/26 00:59:05;;;;;;;3.03;0.60;;;;;;;;;;5011318;28;20108;-70
2021/08/26 01:01:43;;;;;;;2.22;0.40;;;;;;;;;;5011269;28;20034;-70
2021/08/26 01:04:36;;;;;;;0.75;0.35;;;;;;;;;;5011587;28;20028;-70
2021/08/26 01:07:29;;;;;;;2.35;0.40;;;;;;;;;;5011333;28;20041;-70
2021/08/26 01:10:01;;;;;;;1.00;0.40;;;;;;;;;;5010755;28;20034;-69
2021/08/26 01:12:29;;;;;;;2.05;0.28;;;;;;;;;;5011964;28;20104;-70
2021/08/26 01:14:55;;;;;;;0.43;0.30;;;;;;;;;;5011172;28;20030;-69
2021/08/26 01:17:30;;;;;;;0.20;0.20;;;;;;;;;;5010973;28;20030;-70
2021/08/26 01:19:59;;;;;;;2.83;0.30;;;;;;;;;;5010767;28;20061;-69
2021/08/26 01:22:27;;;;;;;0.65;0.30;;;;;;;;;;5011261;28;20022;-69
2021/08/26 01:24:59;;;;;;;1.20;0.40;;;;;;;;;;5010616;28;20471;-69
2021/08/26 01:27:45;;;;;;;1.02;0.22;;;;;;;;;;5010788;28;20070;-69
2021/08/26 01:30:18;;;;;;;0.28;0.13;;;;;;;;;;5011408;28;20037;-69
2021/08/26 01:32:47;;;;;;;0.63;0.20;;;;;;;;;;5010878;28;20025;-69
2021/08/26 01:35:13;;;;;;;2.15;0.35;;;;;;;;;;5010906;28;20061;-69
2021/08/26 01:37:39;;;;;;;0.80;0.50;;;;;;;;;;5010384;28;20509;-69
2021/08/26 01:40:06;;;;;;;0.38;0.30;;;;;;;;;;5010648;28;20030;-69
2021/08/26 01:42:31;;;;;;;2.60;0.40;;;;;;;;;;5010796;28;20474;-70
2021/08/26 01:44:57;;;;;;;1.05;0.40;;;;;;;;;;5013164;28;20101;-69
2021/08/26 01:47:23;;;;;;;0.20;0.20;;;;;;;;;;5014990;28;20026;-69
2021/08/26 01:49:50;;;;;;;1.52;0.20;;;;;;;;;;5014763;28;20029;-69
2021/08/26 01:52:19;;;;;;;0.63;0.20;;;;;;;;;;5015021;28;20382;-69
2021/08/26 01:54:56;;;;;;;0.20;0.20;;;;;;;;;;5014770;28;20038;-69
2021/08/26 01:57:23;;;;;;;0.95;0.30;;;;;;;;;;5014853;28;20382;-69
2021/08/26 01:59:49;;;;;;;1.38;0.22;;;;;;;;;;5014308;28;20524;-69
2021/08/26 02:02:15;;;;;;;0.30;0.30;;;;;;;;;;5014775;28;20030;-69
2021/08/26 02:04:41;;;;;;;2.53;0.30;;;;;;;;;;4997028;28;20362;-68
2021/08/26 02:07:07;;;;;;;2.25;0.40;;;;;;;;;;4996917;28;20042;-69
2021/08/26 02:09:32;;;;;;;1.25;0.40;;;;;;;;;;4998505;28;20030;-69
2021/08/26 02:11:58;;;;;;;0.38;0.20;;;;;;;;;;4994844;28;20074;-69
2021/08/26 02:14:23;;;;;;;0.68;0.30;;;;;;;;;;4994996;28;20030;-70
2021/08/26 02:16:49;;;;;;;0.55;0.30;;;;;;;;;;4995017;28;20022;-70
2021/08/26 02:19:15;;;;;;;0.50;0.30;;;;;;;;;;4997495;28;20034;-69
2021/08/26 02:21:41;;;;;;;4.20;0.50;;;;;;;;;;5000458;28;20110;-70
2021/08/26 02:24:06;;;;;;;2.00;0.30;;;;;;;;;;5014624;28;20054;-69
2021/08/26 02:26:32;;;;;;;0.45;0.20;;;;;;;;;;5014412;28;20030;-69
2021/08/26 02:28:58;;;;;;;2.40;0.30;;;;;;;;;;5013822;28;20397;-69
2021/08/26 02:31:23;;;;;;;1.38;0.20;;;;;;;;;;5014890;28;20046;-69
2021/08/26 02:33:49;;;;;;;2.38;0.20;;;;;;;;;;5013975;28;20057;-69
2021/08/26 02:36:14;;;;;;;3.63;0.40;;;;;;;;;;5014031;28;20389;-69
2021/08/26 02:38:40;;;;;;;0.25;0.20;;;;;;;;;;5013772;28;20061;-70
2021/08/26 02:41:05;;;;;;;0.63;0.20;;;;;;;;;;4996340;28;20029;-70
2021/08/26 02:43:31;;;;;;;1.65;0.30;;;;;;;;;;5014087;28;20041;-70
2021/08/26 02:45:57;;;;;;;1.98;0.30;;;;;;;;;;5013921;28;20033;-70
2021/08/26 02:48:23;;;;;;;0.40;0.20;;;;;;;;;;5013759;28;20393;-70
2021/08/26 02:50:48;;;;;;;1.00;0.25;;;;;;;;;;5013755;28;20033;-69
2021/08/26 02:53:13;;;;;;;0.93;0.20;;;;;;;;;;5013952;28;20111;-70
2021/08/26 02:55:39;;;;;;;0.32;0.30;;;;;;;;;;5013131;28;20022;-69
2021/08/26 02:58:05;;;;;;;0.52;0.20;;;;;;;;;;5013663;28;20032;-69
2021/08/26 03:00:30;;;;;;;2.30;0.40;;;;;;;;;;5013769;28;20022;-69
2021/08/26 03:02:56;;;;;;;0.65;0.25;;;;;;;;;;5013585;28;20469;-69
2021/08/26 03:05:21;;;;;;;0.73;0.25;;;;;;;;;;5013751;28;20026;-69
2021/08/26 03:07:47;;;;;;;1.30;0.30;;;;;;;;;;5013021;28;20490;-68
2021/08/26 03:10:12;;;;;;;0.32;0.30;;;;;;;;;;5013526;28;20026;-68
2021/08/26 03:12:41;;;;;;;2.05;0.30;;;;;;;;;;5013833;28;20014;-69
2021/08/26 03:15:07;;;;;;;0.28;0.28;;;;;;;;;;5013467;28;20021;-69
2021/08/26 03:17:32;;;;;;;0.47;0.20;;;;;;;;;;4995734;28;20034;-69
2021/08/26 03:19:58;;;;;;;1.65;0.30;;;;;;;;;;5012841;28;20522;-68
2021/08/26 03:22:23;;;;;;;1.42;0.25;;;;;;;;;;5013162;28;20026;-69
2021/08/26 03:24:49;;;;;;;1.52;0.20;;;;;;;;;;5013104;28;20548;-69
2021/08/26 03:27:15;;;;;;;2.47;0.30;;;;;;;;;;5013302;28;20105;-70
2021/08/26 03:29:40;;;;;;;0.32;0.20;;;;;;;;;;4997851;28;20022;-70
2021/08/26 03:32:06;;;;;;;1.20;0.17;;;;;;;;;;4993944;28;20102;-70
2021/08/26 03:34:32;;;;;;;2.10;0.30;;;;;;;;;;5013168;28;20025;-70
2021/08/26 03:36:57;;;;;;;0.43;0.30;;;;;;;;;;5012895;28;20041;-70
2021/08/26 03:39:23;;;;;;;0.57;0.30;;;;;;;;;;5012813;28;20026;-70
2021/08/26 03:41:48;;;;;;;1.55;0.30;;;;;;;;;;5013034;28;20022;-69
2021/08/26 03:44:13;;;;;;;0.38;0.20;;;;;;;;;;5013009;28;20556;-69
2021/08/26 03:46:39;;;;;;;0.90;0.30;;;;;;;;;;5012619;28;20026;-69
2021/08/26 03:49:04;;;;;;;1.17;0.40;;;;;;;;;;5012661;28;20107;-69
2021/08/26 03:51:30;;;;;;;3.55;0.40;;;;;;;;;;5012506;28;20028;-70
2021/08/26 03:53:55;;;;;;;0.80;0.35;;;;;;;;;;5011072;28;20108;-70
2021/08/26 03:56:21;;;;;;;1.17;0.70;;;;;;;;;;5011020;28;20382;-69
2021/08/26 03:58:46;;;;;;;2.42;0.30;;;;;;;;;;5010962;28;20044;-70
2021/08/26 04:01:11;;;;;;;0.40;0.20;;;;;;;;;;5001118;28;20026;-69
2021/08/26 04:03:37;;;;;;;1.75;0.30;;;;;;;;;;5011140;28;20032;-70
2021/08/26 04:06:02;;;;;;;3.92;0.40;;;;;;;;;;5012060;28;20450;-69
2021/08/26 04:08:28;;;;;;;0.50;0.20;;;;;;;;;;5011752;28;20137;-69
2021/08/26 04:10:54;;;;;;;0.38;0.25;;;;;;;;;;5012561;28;20018;-69
2021/08/26 04:13:20;;;;;;;0.90;0.40;;;;;;;;;;5010707;28;20034;-69
2021/08/26 04:15:47;;;;;;;0.35;0.20;;;;;;;;;;5012135;28;20478;-69
2021/08/26 04:18:13;;;;;;;0.63;0.30;;;;;;;;;;5011652;28;20369;-69
2021/08/26 04:20:38;;;;;;;1.80;0.40;;;;;;;;;;5015959;28;20470;-69
2021/08/26 04:23:05;;;;;;;1.33;0.20;;;;;;;;;;5011893;28;20036;-69
2021/08/26 04:25:31;;;;;;;1.90;0.22;;;;;;;;;;5001162;28;20026;-70
2021/08/26 04:27:56;;;;;;;0.85;0.40;;;;;;;;;;5011771;28;20473;-69
2021/08/26 04:30:22;;;;;;;0.68;0.32;;;;;;;;;;5011360;28;20072;-69
2021/08/26 04:32:48;;;;;;;1.13;0.30;;;;;;;;;;5011751;28;20029;-69
2021/08/26 04:35:14;;;;;;;0.85;0.20;;;;;;;;;;5011785;28;20503;-70
2021/08/26 04:37:39;;;;;;;1.55;0.30;;;;;;;;;;5012206;28;20061;-69
2021/08/26 04:40:05;;;;;;;0.35;0.20;;;;;;;;;;5011001;28;20394;-70
2021/08/26 04:42:30;;;;;;;1.67;0.20;;;;;;;;;;5011981;28;20036;-69
2021/08/26 04:44:56;;;;;;;0.38;0.22;;;;;;;;;;5011219;28;20022;-70
2021/08/26 04:47:21;;;;;;;0.28;0.13;;;;;;;;;;5010166;28;20104;-69
2021/08/26 04:49:47;;;;;;;1.63;0.35;;;;;;;;;;5009086;28;20025;-69
2021/08/26 04:52:12;;;;;;;0.28;0.20;;;;;;;;;;5011068;28;20474;-69
2021/08/26 04:54:38;;;;;;;1.88;0.20;;;;;;;;;;5010577;28;20032;-69
2021/08/26 04:57:03;;;;;;;0.20;0.20;;;;;;;;;;5010416;28;20455;-69
2021/08/26 04:59:28;;;;;;;2.85;0.73;;;;;;;;;;5010518;28;20608;-69
2021/08/26 05:01:54;;;;;;;0.22;0.13;;;;;;;;;;5008342;28;20034;-70
2021/08/26 05:04:25;;;;;;;1.38;0.35;;;;;;;;;;5008188;28;20033;-69
2021/08/26 05:06:51;;;;;;;2.17;0.20;;;;;;;;;;5010259;28;20564;-69
2021/08/26 05:09:20;;;;;;;0.20;0.20;;;;;;;;;;5011252;28;20061;-69
2021/08/26 05:11:46;;;;;;;0.40;0.25;;;;;;;;;;5010889;28;20037;-70
2021/08/26 05:14:12;;;;;;;2.63;0.20;;;;;;;;;;5011374;28;20025;-70
2021/08/26 05:16:37;;;;;;;0.35;0.20;;;;;;;;;;5010351;28;20064;-69
2021/08/26 05:19:03;;;;;;;0.85;0.10;;;;;;;;;;5011848;28;20025;-70
2021/08/26 05:21:28;;;;;;;1.08;0.10;;;;;;;;;;5010580;28;20429;-70
2021/08/26 05:23:54;;;;;;;0.40;0.20;;;;;;;;;;5011077;28;20057;-70
2021/08/26 05:26:20;;;;;;;1.20;0.20;;;;;;;;;;5014417;28;20080;-71
2021/08/26 05:28:46;;;;;;;0.57;0.20;;;;;;;;;;5011176;28;20028;-70
2021/08/26 05:31:13;;;;;;;0.10;0.10;;;;;;;;;;5010997;28;20036;-70
2021/08/26 05:33:39;;;;;;;1.02;0.10;;;;;;;;;;4989799;28;20049;-70
2021/08/26 05:36:04;;;;;;;0.52;0.15;;;;;;;;;;5005579;28;20037;-70
2021/08/26 05:38:30;;;;;;;0.22;0.17;;;;;;;;;;5010911;28;20359;-70
2021/08/26 05:40:55;;;;;;;2.95;0.20;;;;;;;;;;5010305;28;20034;-70
2021/08/26 05:43:21;;;;;;;0.10;0.10;;;;;;;;;;5010880;28;20029;-69
2021/08/26 05:45:46;;;;;;;0.35;0.10;;;;;;;;;;5011143;28;20561;-69
2021/08/26 05:48:12;;;;;;;0.30;0.10;;;;;;;;;;5010886;28;20475;-70
2021/08/26 05:50:37;;;;;;;0.10;0.10;;;;;;;;;;5011144;28;20478;-69
2021/08/26 05:53:03;;;;;;;0.20;0.20;;;;;;;;;;5003891;28;20419;-69
2021/08/26 05:55:28;;;;;;;1.45;0.20;;;;;;;;;;5001202;28;20076;-69
2021/08/26 05:57:54;;;;;;;0.50;0.10;;;;;;;;;;5010429;28;20387;-69
2021/08/26 06:00:19;;;;;;;1.48;0.20;;;;;;;;;;5010508;28;20435;-69
2021/08/26 06:02:45;;;;;;;0.10;0.10;;;;;;;;;;5011030;28;20414;-69
2021/08/26 06:05:11;;;;;;;1.33;0.17;;;;;;;;;;5009466;28;20041;-69
2021/08/26 06:07:38;;;;;;;1.27;0.20;;;;;;;;;;5010022;28;20509;-69
2021/08/26 06:10:05;;;;;;;0.30;0.10;;;;;;;;;;5009814;28;20049;-69
2021/08/26 06:12:31;;;;;;;0.30;0.10;;;;;;;;;;5010343;28;20394;-69
2021/08/26 06:14:57;;;;;;;0.80;0.20;;;;;;;;;;5010394;28;20029;-68
2021/08/26 06:17:22;;;;;;;0.57;0.15;;;;;;;;;;5010972;28;20034;-69
2021/08/26 06:19:48;;;;;;;0.90;0.25;;;;;;;;;;5010130;28;20044;-70
2021/08/26 06:22:13;;;;;;;1.35;0.20;;;;;;;;;;4995243;28;20084;-69
2021/08/26 06:24:39;;;;;;;1.55;0.22;;;;;;;;;;5003150;28;20076;-70
2021/08/26 06:27:04;;;;;;;1.15;0.17;;;;;;;;;;5010412;28;20034;-69
2021/08/26 06:29:30;;;;;;;0.10;0.10;;;;;;;;;;5003094;28;20056;-69
2021/08/26 06:31:55;;;;;;;0.15;0.10;;;;;;;;;;5014157;28;20025;-70
2021/08/26 06:34:21;;;;;;;0.28;0.10;;;;;;;;;;5013688;28;20022;-69
2021/08/26 06:36:46;;;;;;;2.63;0.20;;;;;;;;;;5014174;28;20390;-69
2021/08/26 06:39:12;;;;;;;0.30;0.30;;;;;;;;;;5014079;28;20382;-70
2021/08/26 06:41:37;;;;;;;0.10;0.05;;;;;;;;;;5010012;28;20116;-69
2021/08/26 06:44:03;;;;;;;1.23;0.22;;;;;;;;;;5005681;28;20065;-69
2021/08/26 06:46:29;;;;;;;1.15;0.20;;;;;;;;;;5014693;28;20033;-70
2021/08/26 06:48:56;;;;;;;0.30;0.10;;;;;;;;;;5013981;28;20077;-70
2021/08/26 06:51:22;;;;;;;3.05;0.20;;;;;;;;;;5014056;28;20029;-69
2021/08/26 06:53:48;;;;;;;0.10;0.10;;;;;;;;;;5014822;28;20026;-69
2021/08/26 06:56:13;;;;;;;0.30;0.20;;;;;;;;;;5013611;28;20497;-68
2021/08/26 06:58:39;;;;;;;0.10;0.10;;;;;;;;;;5013276;28;20022;-67
2021/08/26 07:01:04;;;;;;;0.95;0.20;;;;;;;;;;5013293;28;20172;-67
2021/08/26 07:03:30;;;;;;;2.33;0.40;;;;;;;;;;5013789;28;20026;-71
2021/08/26 07:05:56;;;;;;;0.57;0.10;;;;;;;;;;5013356;28;20030;-70
2021/08/26 07:08:23;;;;;;;0.20;0.20;;;;;;;;;;5013355;28;20038;-68
2021/08/26 07:10:49;;;;;;;0.22;0.20;;;;;;;;;;5013774;28;20022;-69
2021/08/26 07:13:14;;;;;;;0.15;0.10;;;;;;;;;;5013227;28;20034;-68
2021/08/26 07:15:40;;;;;;;0.43;0.10;;;;;;;;;;5013700;28;20121;-67
2021/08/26 07:18:06;;;;;;;0.45;0.10;;;;;;;;;;5013092;28;20022;-68
2021/08/26 07:20:32;;;;;;;0.32;0.17;;;;;;;;;;5013450;28;20470;-67
2021/08/26 07:22:58;;;;;;;1.83;0.20;;;;;;;;;;5013454;28;20038;-68
2021/08/26 07:25:23;;;;;;;0.57;0.13;;;;;;;;;;5013809;28;20029;-69
2021/08/26 07:27:49;;;;;;;0.10;0.10;;;;;;;;;;5012978;28;20033;-68
2021/08/26 07:30:15;;;;;;;0.10;0.10;;;;;;;;;;5013314;28;20512;-69
2021/08/26 07:32:41;;;;;;;0.63;0.20;;;;;;;;;;5013428;28;20030;-68
2021/08/26 07:35:07;;;;;;;1.05;0.22;;;;;;;;;;5006564;28;20026;-69
2021/08/26 07:37:35;;;;;;;0.10;0.10;;;;;;;;;;5014004;28;20079;-68
2021/08/26 07:40:01;;;;;;;0.20;0.17;;;;;;;;;;5012680;28;20462;-69
2021/08/26 07:42:27;;;;;;;2.85;0.20;;;;;;;;;;5012987;28;20034;-68
2021/08/26 07:44:52;;;;;;;0.70;0.13;;;;;;;;;;5012564;28;20021;-68
2021/08/26 07:47:18;;;;;;;0.10;0.10;;;;;;;;;;5013954;28;20152;-71
2021/08/26 07:49:43;;;;;;;1.02;0.20;;;;;;;;;;5013388;28;20029;-70
2021/08/26 07:52:09;;;;;;;1.40;0.20;;;;;;;;;;5012743;28;20022;-69
2021/08/26 07:54:34;;;;;;;1.38;0.20;;;;;;;;;;5007515;28;20038;-70
2021/08/26 07:57:00;;;;;;;0.30;0.10;;;;;;;;;;5011784;28;20022;-69
2021/08/26 07:59:25;;;;;;;0.10;0.10;;;;;;;;;;5012752;28;20112;-69
2021/08/26 08:01:51;;;;;;;0.30;0.20;;;;;;;;;;5012397;28;20022;-71
2021/08/26 08:04:17;;;;;;;1.65;0.30;;;;;;;;;;5012127;28;20025;-69
2021/08/26 08:06:42;;;;;;;0.60;0.22;;;;;;;;;;5012258;28;20030;-71
2021/08/26 08:09:07;;;;;;;1.00;0.30;;;;;;;;;;5012298;28;20477;-68
2021/08/26 08:11:33;;;;;;;1.30;0.30;;;;;;;;;;5012791;28;20014;-69
2021/08/26 08:14:01;;;;;;;1.67;0.30;;;;;;;;;;5011333;28;20037;-67
2021/08/26 08:16:26;;;;;;;0.20;0.20;;;;;;;;;;4989602;28;20033;-70
2021/08/26 08:18:52;;;;;;;2.00;0.47;;;;;;;;;;5012099;28;20030;-69
2021/08/26 08:21:17;;;;;;;0.80;0.30;;;;;;;;;;4996101;28;20022;-68
2021/08/26 08:23:43;;;;;;;0.57;0.28;;;;;;;;;;5012397;28;20087;-69
2021/08/26 08:26:10;;;;;;;0.50;0.28;;;;;;;;;;5011560;28;20044;-71
2021/08/26 08:28:37;;;;;;;1.52;0.40;;;;;;;;;;5012578;28;20092;-71
2021/08/26 08:31:04;;;;;;;0.30;0.20;;;;;;;;;;5012443;28;20469;-67
2021/08/26 08:33:30;;;;;;;2.17;0.70;;;;;;;;;;5012613;28;20033;-70
2021/08/26 08:35:55;;;;;;;0.60;0.30;;;;;;;;;;5012906;28;20033;-67
2021/08/26 08:38:21;;;;;;;1.45;0.30;;;;;;;;;;5012291;28;20109;-68
2021/08/26 08:40:47;;;;;;;0.70;0.30;;;;;;;;;;5021534;28;20038;-70
2021/08/26 08:43:14;;;;;;;0.17;0.17;;;;;;;;;;5016986;28;20083;-68
2021/08/26 08:45:44;;;;;;;0.77;0.30;;;;;;;;;;5011744;28;20054;-69
2021/08/26 08:48:10;;;;;;;2.38;0.50;;;;;;;;;;5012024;28;20421;-68
2021/08/26 08:50:38;;;;;;;1.00;0.30;;;;;;;;;;5012024;28;20029;-69
2021/08/26 08:53:04;;;;;;;0.30;0.30;;;;;;;;;;5011686;28;20057;-69
2021/08/26 08:55:30;;;;;;;0.35;0.30;;;;;;;;;;5009743;28;20022;-69
2021/08/26 08:57:56;;;;;;;0.32;0.32;;;;;;;;;;5011867;28;20083;-68
2021/08/26 09:00:23;;;;;;;0.77;0.40;;;;;;;;;;5012128;28;20072;-67
2021/08/26 09:02:49;;;;;;;0.57;0.30;;;;;;;;;;5012184;28;20022;-68
2021/08/26 09:05:15;;;;;;;0.50;0.25;;;;;;;;;;5011544;28;20041;-71
2021/08/26 09:07:42;;;;;;;0.77;0.30;;;;;;;;;;5011542;28;20042;-67
2021/08/26 09:10:09;;;;;;;0.93;0.43;;;;;;;;;;5012392;28;20033;-67
2021/08/26 09:12:41;;;;;;;0.30;0.30;;;;;;;;;;5012513;28;20075;-67
2021/08/26 09:15:07;;;;;;;1.55;0.57;;;;;;;;;;5011819;28;20551;-69
2021/08/26 09:17:33;;;;;;;2.05;0.60;;;;;;;;;;5012113;28;20022;-68
2021/08/26 09:20:04;;;;;;;1.67;0.50;;;;;;;;;;5011647;28;20037;-68
2021/08/26 09:22:31;;;;;;;0.65;0.43;;;;;;;;;;5011863;28;20535;-69
2021/08/26 09:24:58;;;;;;;0.77;0.35;;;;;;;;;;5011817;28;20032;-67
2021/08/26 09:27:33;;;;;;;1.33;0.57;;;;;;;;;;5012114;28;20034;-67
2021/08/26 09:30:13;;;;;;;3.35;0.60;;;;;;;;;;5011688;28;20033;-67
2021/08/26 09:32:45;;;;;;;2.38;0.60;;;;;;;;;;5012307;28;20018;-69
2021/08/26 09:35:21;;;;;;;0.90;0.60;;;;;;;;;;5010824;28;20026;-71
2021/08/26 09:37:54;;;;;;;0.60;0.50;;;;;;;;;;5005518;28;20036;-68
2021/08/26 09:40:22;;;;;;;0.68;0.50;;;;;;;;;;5011000;28;20033;-68
2021/08/26 09:42:57;;;;;;;0.85;0.50;;;;;;;;;;5011509;28;20370;-70
2021/08/26 09:45:26;;;;;;;1.80;0.60;;;;;;;;;;5005448;28;20113;-69
2021/08/26 09:47:57;;;;;;;0.93;0.60;;;;;;;;;;5013441;28;20165;-70
2021/08/26 09:50:46;;;;;;;1.10;0.70;;;;;;;;;;5011770;28;20029;-70
2021/08/26 09:53:14;;;;;;;2.25;0.80;;;;;;;;;;5010840;28;20033;-69
2021/08/26 09:55:51;;;;;;;1.27;0.80;;;;;;;;;;5015016;28;20021;-68
2021/08/26 09:58:19;;;;;;;1.95;0.70;;;;;;;;;;5011157;28;20044;-70
2021/08/26 10:00:46;;;;;;;2.30;0.90;;;;;;;;;;5011878;28;20030;-68
2021/08/26 10:03:13;;;;;;;2.10;1.00;;;;;;;;;;5011643;28;20429;-69
2021/08/26 10:05:43;;;;;;;1.70;0.90;;;;;;;;;;5014419;28;20072;-68
2021/08/26 10:08:12;;;;;;;1.48;0.93;;;;;;;;;;5014943;28;20034;-68
2021/08/26 10:10:42;;;;;;;1.48;0.90;;;;;;;;;;5014800;28;20148;-69
2021/08/26 10:13:09;;;;;;;1.13;0.85;;;;;;;;;;5015320;28;20033;-69
2021/08/26 10:15:35;;;;;;;2.05;1.23;;;;;;;;;;5015989;28;20033;-69
2021/08/26 10:18:01;;;;;;;1.98;1.10;;;;;;;;;;5015109;28;20351;-68
2021/08/26 10:20:27;;;;;;;1.10;0.90;;;;;;;;;;5015207;28;20043;-67
2021/08/26 10:22:53;;;;;;;1.30;0.90;;;;;;;;;;5015214;28;20109;-68
2021/08/26 10:25:19;;;;;;;1.85;1.00;;;;;;;;;;5014562;28;20385;-67
2021/08/26 10:27:46;;;;;;;2.35;1.10;;;;;;;;;;5014647;28;20040;-67
2021/08/26 10:30:29;;;;;;;1.45;0.70;;;;;;;;;;5014690;28;20032;-67
2021/08/26 10:33:13;;;;;;;2.13;0.75;;;;;;;;;;5013510;28;20033;-69
2021/08/26 10:35:50;;;;;;;1.77;1.00;;;;;;;;;;5014103;28;20454;-70
2021/08/26 10:38:20;;;;;;;1.70;1.00;;;;;;;;;;5014398;28;20041;-68
2021/08/26 10:40:46;;;;;;;2.05;1.20;;;;;;;;;;5014138;28;20430;-68
2021/08/26 10:43:36;;;;;;;1.90;1.20;;;;;;;;;;5013839;28;20038;-67
2021/08/26 10:46:04;;;;;;;2.03;1.00;;;;;;;;;;5014559;28;20160;-68
2021/08/26 10:48:30;;;;;;;1.23;1.10;;;;;;;;;;5014562;28;20017;-67
2021/08/26 10:51:03;;;;;;;1.75;1.00;;;;;;;;;;5014009;28;20425;-67
2021/08/26 10:53:30;;;;;;;1.92;1.10;;;;;;;;;;5012593;28;20022;-66
2021/08/26 10:56:12;;;;;;;2.90;1.00;;;;;;;;;;5013488;28;20056;-67
2021/08/26 10:58:38;;;;;;;2.53;1.00;;;;;;;;;;5013671;28;20029;-66
2021/08/26 11:01:05;;;;;;;3.05;1.20;;;;;;;;;;5014302;28;20033;-68
2021/08/26 11:03:34;;;;;;;2.22;1.17;;;;;;;;;;5014337;28;20025;-67
2021/08/26 11:06:21;;;;;;;4.72;1.20;;;;;;;;;;5014399;28;20033;-67
2021/08/26 11:09:16;;;;;;;3.83;1.45;;;;;;;;;;5014559;28;20038;-66
2021/08/26 11:11:47;;;;;;;3.67;2.05;;;;;;;;;;5012972;28;20029;-67
2021/08/26 11:14:12;;;;;;;2.25;1.65;;;;;;;;;;5012475;28;20024;-67
2021/08/26 11:16:43;;;;;;;2.28;1.30;;;;;;;;;;5013167;28;20116;-66
2021/08/26 11:19:12;;;;;;;2.42;1.40;;;;;;;;;;5012575;28;20034;-67
2021/08/26 11:21:40;;;;;;;2.30;1.40;;;;;;;;;;5014273;28;20026;-67
2021/08/26 11:24:07;;;;;;;2.17;1.40;;;;;;;;;;5013595;28;20072;-67
2021/08/26 11:26:47;;;;;;;2.65;1.55;;;;;;;;;;5001696;28;20045;-67
2021/08/26 11:29:25;;;;;;;4.55;1.40;;;;;;;;;;5012519;28;20470;-67
2021/08/26 11:31:53;;;;;;;2.28;1.80;;;;;;;;;;5012955;28;20553;-67
2021/08/26 11:34:27;;;;;;;1.73;1.23;;;;;;;;;;5012746;28;20367;-67
2021/08/26 11:37:04;;;;;;;2.53;1.30;;;;;;;;;;5013279;28;20114;-67
2021/08/26 11:39:32;;;;;;;3.10;1.40;;;;;;;;;;5012799;28;20037;-67
2021/08/26 11:42:02;;;;;;;2.72;1.10;;;;;;;;;;5012640;28;20029;-67
2021/08/26 11:44:28;;;;;;;1.42;1.10;;;;;;;;;;5012520;28;20354;-68
2021/08/26 11:46:54;;;;;;;2.33;1.15;;;;;;;;;;5013407;28;20030;-67
2021/08/26 11:49:30;;;;;;;1.58;1.00;;;;;;;;;;5013123;28;20426;-67
2021/08/26 11:52:04;;;;;;;1.90;1.10;;;;;;;;;;5013360;28;20025;-67
2021/08/26 11:54:35;;;;;;;1.40;1.10;;;;;;;;;;5012965;28;20033;-66
2021/08/26 11:57:01;;;;;;;3.67;1.50;;;;;;;;;;5013063;28;20037;-67
2021/08/26 11:59:38;;;;;;;2.70;1.40;;;;;;;;;;5015206;28;20037;-68
2021/08/26 12:02:24;;;;;;;2.42;1.48;;;;;;;;;;5032993;28;20025;-67
2021/08/26 12:04:57;;;;;;;2.38;1.52;;;;;;;;;;5031090;28;20060;-67
2021/08/26 12:07:41;;;;;;;2.95;1.27;;;;;;;;;;4994807;28;20041;-67
2021/08/26 12:10:06;;;;;;;;;;;;;;;;;;5012556;28;20518;-68
2021/08/26 12:12:32;;;;;;;2.80;1.55;;;;;;;;;;5012562;28;19920;-67
2021/08/26 12:14:58;;;;;;;2.83;1.45;;;;;;;;;;5012489;28;20041;-66
2021/08/26 12:17:23;;;;;;;3.38;1.60;;;;;;;;;;5012680;28;20033;-67
2021/08/26 12:19:52;;;;;;;2.17;1.40;;;;;;;;;;5011858;28;20030;-67
2021/08/26 12:22:24;;;;;;;3.00;1.50;;;;;;;;;;5011847;28;20116;-67
2021/08/26 12:24:56;;;;;;;2.35;1.60;;;;;;;;;;5011903;28;20022;-67
2021/08/26 12:27:24;;;;;;;2.35;1.38;;;;;;;;;;5010234;28;20029;-67
2021/08/26 12:29:51;;;;;;;4.00;1.55;;;;;;;;;;5010663;28;20022;-67
2021/08/26 12:32:28;;;;;;;2.50;1.20;;;;;;;;;;5010351;28;20124;-67
2021/08/26 12:35:17;;;;;;;3.65;1.60;;;;;;;;;;5011969;28;20030;-67
2021/08/26 12:38:00;;;;;;;3.97;1.70;;;;;;;;;;5011756;28;20021;-67
2021/08/26 12:40:45;;;;;;;2.77;2.30;;;;;;;;;;5011642;28;20038;-67
2021/08/26 12:43:10;;;;;;;3.90;1.70;;;;;;;;;;5011936;28;20263;-67
2021/08/26 12:45:36;;;;;;;3.33;1.73;;;;;;;;;;5011709;28;20014;-67
2021/08/26 12:48:20;;;;;;;2.97;1.40;;;;;;;;;;5011649;28;20018;-67
2021/08/26 12:50:45;;;;;;;;;;;;;;;;;;5012131;28;20052;-67
2021/08/26 12:53:18;;;;;;;2.17;1.42;;;;;;;;;;5011358;28;20012;-67
2021/08/26 12:56:03;;;;;;;2.00;1.45;;;;;;;;;;5011386;28;20021;-67
2021/08/26 12:58:29;;;;;;;1.73;1.25;;;;;;;;;;5011234;28;20808;-67
2021/08/26 13:00:55;;;;;;;4.25;1.40;;;;;;;;;;5011429;28;20026;-67
2021/08/26 13:03:22;;;;;;;2.63;1.02;;;;;;;;;;5011264;28;20025;-66
2021/08/26 13:05:51;;;;;;;1.92;1.10;;;;;;;;;;5011394;28;20220;-66
2021/08/26 13:08:18;;;;;;;2.00;1.20;;;;;;;;;;5010903;28;20049;-67
2021/08/26 13:10:46;;;;;;;2.10;1.27;;;;;;;;;;5011073;28;20029;-67
2021/08/26 13:13:13;;;;;;;1.45;1.20;;;;;;;;;;5010970;28;20079;-67
2021/08/26 13:15:40;;;;;;;1.60;1.20;;;;;;;;;;5011327;28;20045;-67
2021/08/26 13:18:06;;;;;;;2.00;1.60;;;;;;;;;;5011210;28;20553;-67
2021/08/26 13:20:34;;;;;;;1.65;1.20;;;;;;;;;;5010866;28;20499;-67
2021/08/26 13:23:00;;;;;;;2.83;1.52;;;;;;;;;;5011179;28;20385;-67
2021/08/26 13:25:26;;;;;;;1.60;1.30;;;;;;;;;;4993282;28;20036;-66
2021/08/26 13:27:52;;;;;;;2.05;1.42;;;;;;;;;;5011031;28;20038;-67
2021/08/26 13:30:17;;;;;;;1.40;1.27;;;;;;;;;;5010849;28;20033;-67
2021/08/26 13:32:43;;;;;;;1.42;1.10;;;;;;;;;;5011302;28;20360;-67
2021/08/26 13:35:10;;;;;;;1.85;0.90;;;;;;;;;;5011088;28;20029;-67
2021/08/26 13:37:38;;;;;;;1.50;0.70;;;;;;;;;;5011132;28;20022;-67
2021/08/26 13:40:05;;;;;;;0.73;0.60;;;;;;;;;;5010905;28;20053;-67
2021/08/26 13:42:33;;;;;;;2.83;0.93;;;;;;;;;;5010640;28;20030;-67
2021/08/26 13:44:58;;;;;;;1.30;0.65;;;;;;;;;;5010942;28;20030;-68
2021/08/26 13:47:24;;;;;;;1.23;0.80;;;;;;;;;;5010665;28;20026;-68
2021/08/26 13:49:49;;;;;;;1.52;0.82;;;;;;;;;;5010101;28;20022;-66
2021/08/26 13:52:15;;;;;;;0.85;0.80;;;;;;;;;;4999736;28;20727;-67
2021/08/26 13:54:41;;;;;;;1.83;1.05;;;;;;;;;;5006545;28;20022;-67
2021/08/26 13:57:06;;;;;;;1.85;0.88;;;;;;;;;;4991298;28;20022;-66
2021/08/26 13:59:32;;;;;;;2.38;1.10;;;;;;;;;;5007158;28;20030;-67
2021/08/26 14:01:58;;;;;;;1.40;1.00;;;;;;;;;;5009881;28;20399;-67
2021/08/26 14:04:24;;;;;;;1.90;0.90;;;;;;;;;;5008842;28;20033;-67
2021/08/26 14:06:52;;;;;;;1.70;0.80;;;;;;;;;;5010404;28;20034;-67
2021/08/26 14:09:18;;;;;;;1.52;0.82;;;;;;;;;;5010099;28;20051;-66
2021/08/26 14:11:43;;;;;;;2.00;1.10;;;;;;;;;;5010543;28;20100;-69
2021/08/26 14:14:11;;;;;;;1.30;0.73;;;;;;;;;;5011208;28;20037;-69
2021/08/26 14:16:37;;;;;;;1.45;0.80;;;;;;;;;;5008855;28;20029;-67
2021/08/26 14:19:03;;;;;;;1.67;0.82;;;;;;;;;;5010460;28;20525;-67
2021/08/26 14:21:28;;;;;;;1.85;0.80;;;;;;;;;;5010511;28;20034;-67
2021/08/26 14:23:54;;;;;;;0.98;0.90;;;;;;;;;;5010994;28;20482;-67
2021/08/26 14:26:19;;;;;;;2.15;0.90;;;;;;;;;;5010413;28;20435;-67
2021/08/26 14:28:45;;;;;;;3.28;1.20;;;;;;;;;;5010564;28;20029;-69
2021/08/26 14:31:10;;;;;;;1.55;1.00;;;;;;;;;;5011097;28;20048;-67
2021/08/26 14:33:37;;;;;;;2.25;1.20;;;;;;;;;;5010603;28;20364;-68
2021/08/26 14:36:04;;;;;;;1.80;1.17;;;;;;;;;;5010685;28;20038;-70
2021/08/26 14:38:30;;;;;;;2.08;1.40;;;;;;;;;;5010585;28;20026;-68
2021/08/26 14:40:55;;;;;;;1.55;1.20;;;;;;;;;;5010665;28;20041;-70
2021/08/26 14:43:23;;;;;;;1.50;1.40;;;;;;;;;;5010228;28;20022;-69
2021/08/26 14:45:48;;;;;;;2.55;1.52;;;;;;;;;;5010660;28;20036;-70
2021/08/26 14:48:14;;;;;;;1.85;1.40;;;;;;;;;;5009983;28;20025;-69
2021/08/26 14:50:40;;;;;;;1.50;1.30;;;;;;;;;;5010636;28;20018;-68
2021/08/26 14:53:06;;;;;;;2.17;1.30;;;;;;;;;;5014659;28;20042;-67